Time;durP1;ratioP1;P1;durP2;ratioP2;P2;SDS_P1;SDS_P2;PMS_P1;PMS_P2;Temp;Humidity;BMP_temperature;BMP_pressure;BME280_temperature;BME280_humidity;BME280_pressure;Samples;Min_cycle;Max_cycle;Signal;HPM_P1;HPM_P2
2022/02/14 00:00:39;;;;;;;;;;;24.60;82.40;;;;;;5092423;28;19908;-48
2022/02/14 00:03:06;;;;;;;;;;;24.60;82.80;;;;;;5095408;28;19908;-54
2022/02/14 00:05:33;;;;;;;;;;;24.70;82.00;;;;;;5095838;28;19911;-50
2022/02/14 00:08:00;;;;;;;;;;;24.70;81.10;;;;;;5096557;28;19908;-58
2022/02/14 00:10:27;;;;;;;;;;;24.80;81.10;;;;;;5096185;28;20369;-50
2022/02/14 00:12:54;;;;;;;;;;;24.90;81.10;;;;;;5096350;28;19916;-53
2022/02/14 00:15:22;;;;;;;;;;;24.90;80.60;;;;;;5096499;28;20284;-56
2022/02/14 00:17:49;;;;;;;;;;;24.90;79.60;;;;;;5096327;28;20416;-53
2022/02/14 00:20:16;;;;;;;;;;;25.00;80.30;;;;;;5096103;28;19962;-51
2022/02/14 00:22:42;;;;;;;;;;;24.90;81.20;;;;;;5095931;28;19915;-52
2022/02/14 00:25:10;;;;;;;;;;;25.00;80.70;;;;;;5095956;28;19978;-48
2022/02/14 00:27:36;;;;;;;;;;;25.00;80.60;;;;;;5095567;28;20297;-46
2022/02/14 00:30:03;;;;;;;;;;;25.00;80.10;;;;;;5095778;28;20436;-51
2022/02/14 00:32:35;;;;;;;;;;;25.00;80.40;;;;;;5095367;28;19920;-53
2022/02/14 00:35:02;;;;;;;;;;;25.00;81.30;;;;;;5095583;28;20007;-54
2022/02/14 00:37:29;;;;;;;;;;;24.90;81.00;;;;;;5078365;28;19915;-57
2022/02/14 00:39:56;;;;;;;;;;;25.00;81.70;;;;;;5095444;28;20015;-56
2022/02/14 00:42:26;;;;;;;;;;;24.90;81.80;;;;;;5095784;28;19908;-51
2022/02/14 00:44:54;;;;;;;;;;;25.00;80.50;;;;;;5094435;28;19908;-51
2022/02/14 00:47:21;;;;;;;;;;;25.10;80.50;;;;;;5095264;28;19908;-58
2022/02/14 00:49:47;;;;;;;;;;;25.10;81.30;;;;;;5094328;28;19908;-46
2022/02/14 00:52:17;;;;;;;;;;;25.20;80.40;;;;;;5095293;28;20390;-55
2022/02/14 00:54:44;;;;;;;;;;;25.20;80.30;;;;;;5059947;28;19958;-52
2022/02/14 00:57:11;;;;;;;;;;;25.30;80.80;;;;;;5095224;28;19931;-55
2022/02/14 00:59:37;;;;;;;;;;;25.30;80.60;;;;;;5094821;28;19912;-50
2022/02/14 01:02:04;;;;;;;;;;;25.20;80.80;;;;;;5077207;28;19927;-47
2022/02/14 01:04:31;;;;;;;;;;;25.30;80.50;;;;;;5095211;28;19908;-47
2022/02/14 01:06:58;;;;;;;;;;;25.30;80.50;;;;;;5094963;28;19954;-48
2022/02/14 01:09:45;;;;;;;;;;;25.30;80.10;;;;;;5094772;28;19919;-48
2022/02/14 01:12:12;;;;;;;;;;;25.40;79.90;;;;;;5095192;28;19916;-56
2022/02/14 01:14:38;;;;;;;;;;;25.30;80.50;;;;;;5093453;28;19912;-52
2022/02/14 01:17:06;;;;;;;;;;;25.30;80.30;;;;;;5094989;28;19920;-53
2022/02/14 01:19:33;;;;;;;;;;;25.40;79.90;;;;;;5094593;28;20362;-50
2022/02/14 01:21:59;;;;;;;;;;;25.50;79.80;;;;;;5095028;28;20319;-54
2022/02/14 01:24:30;;;;;;;;;;;25.50;79.30;;;;;;5095080;28;19916;-50
2022/02/14 01:26:57;;;;;;;;;;;25.50;79.00;;;;;;5076570;28;20307;-49
2022/02/14 01:29:24;;;;;;;;;;;25.50;79.00;;;;;;5076667;28;19908;-55
2022/02/14 01:31:51;;;;;;;;;;;25.50;79.60;;;;;;5094527;28;19912;-52
2022/02/14 01:34:17;;;;;;;;;;;25.40;80.20;;;;;;5094204;28;19995;-49
2022/02/14 01:36:47;;;;;;;;;;;25.40;80.00;;;;;;5094247;28;19938;-48
2022/02/14 01:39:14;;;;;;;;;;;25.40;79.80;;;;;;5072987;28;19908;-53
2022/02/14 01:41:44;;;;;;;;;;;25.50;80.30;;;;;;5094449;28;19965;-52
2022/02/14 01:44:12;;;;;;;;;;;25.50;80.00;;;;;;5094470;28;20254;-47
2022/02/14 01:46:39;;;;;;;;;;;25.50;79.40;;;;;;5093883;28;19914;-55
2022/02/14 01:49:06;;;;;;;;;;;25.50;79.80;;;;;;5094310;28;19947;-54
2022/02/14 01:51:32;;;;;;;;;;;25.60;79.40;;;;;;5094133;28;19908;-53
2022/02/14 01:54:00;;;;;;;;;;;25.70;79.30;;;;;;5076574;28;19912;-58
2022/02/14 01:56:27;;;;;;;;;;;25.60;79.30;;;;;;5059492;28;19912;-47
2022/02/14 01:58:53;;;;;;;;;;;25.80;78.70;;;;;;5075591;28;20304;-52
2022/02/14 02:01:20;;;;;;;;;;;26.10;78.00;;;;;;5093938;28;20003;-51
2022/02/14 02:03:48;;;;;;;;;;;26.30;77.80;;;;;;5094051;28;20255;-52
2022/02/14 02:06:15;;;;;;;;;;;26.50;77.50;;;;;;5093722;28;19909;-48
2022/02/14 02:08:42;;;;;;;;;;;26.50;77.10;;;;;;5093392;28;19916;-46
2022/02/14 02:13:56;;;;;;;;;;;26.60;76.90;;;;;;5088777;28;19961;-50
2022/02/14 02:16:23;;;;;;;;;;;26.70;76.80;;;;;;5091492;28;19945;-48
2022/02/14 02:18:50;;;;;;;;;;;26.70;76.90;;;;;;5085674;28;19908;-48
2022/02/14 02:21:17;;;;;;;;;;;26.60;76.20;;;;;;5086508;28;20251;-47
2022/02/14 02:23:43;;;;;;;;;;;26.70;76.40;;;;;;5091352;28;19978;-51
2022/02/14 02:26:13;;;;;;;;;;;26.50;77.60;;;;;;5082026;28;19963;-52
2022/02/14 02:28:40;;;;;;;;;;;26.40;77.70;;;;;;5069042;28;19919;-47
2022/02/14 02:31:07;;;;;;;;;;;26.40;78.00;;;;;;5075074;28;19958;-56
2022/02/14 02:33:34;;;;;;;;;;;26.30;78.20;;;;;;5076396;28;19920;-47
2022/02/14 02:36:01;;;;;;;;;;;26.30;78.90;;;;;;5091773;28;20046;-52
2022/02/14 02:38:28;;;;;;;;;;;26.30;78.60;;;;;;5078407;28;19908;-48
2022/02/14 02:40:58;;;;;;;;;;;26.30;78.50;;;;;;5086150;28;19999;-48
2022/02/14 02:43:28;;;;;;;;;;;26.30;79.00;;;;;;5091631;28;19961;-46
2022/02/14 02:45:59;;;;;;;;;;;26.30;78.70;;;;;;5091195;28;19939;-53
2022/02/14 02:48:26;;;;;;;;;;;26.20;78.90;;;;;;5083453;28;19987;-48
2022/02/14 02:51:05;;;;;;;;;;;26.40;78.50;;;;;;5085639;28;19912;-49
2022/02/14 02:53:32;;;;;;;;;;;26.40;78.50;;;;;;5091311;28;19927;-51
2022/02/14 02:56:02;;;;;;;;;;;26.30;78.40;;;;;;5091005;28;19916;-55
2022/02/14 02:58:29;;;;;;;;;;;26.40;77.90;;;;;;5078151;28;21194;-51
2022/02/14 03:00:55;;;;;;;;;;;26.40;78.40;;;;;;5086655;28;20242;-49
2022/02/14 03:03:22;;;;;;;;;;;26.50;77.60;;;;;;5089922;28;20014;-52
2022/02/14 03:05:49;;;;;;;;;;;26.50;77.50;;;;;;5091034;28;19978;-50
2022/02/14 03:08:16;;;;;;;;;;;26.50;77.60;;;;;;5080746;28;19908;-54
2022/02/14 03:10:42;;;;;;;;;;;26.50;77.70;;;;;;5089723;28;20082;-48
2022/02/14 03:13:32;;;;;;;;;;;;;;;;;;;;;
2022/02/14 03:16:00;;;;;;;;;;;26.60;77.90;;;;;;5086059;28;20302;-48
2022/02/14 03:18:26;;;;;;;;;;;26.60;77.50;;;;;;5078450;28;19923;-49
2022/02/14 03:20:54;;;;;;;;;;;26.70;77.00;;;;;;5086294;28;19939;-52
2022/02/14 03:23:22;;;;;;;;;;;26.70;77.60;;;;;;5089339;28;19951;-57
2022/02/14 03:25:48;;;;;;;;;;;26.70;78.10;;;;;;5091104;28;19922;-53
2022/02/14 03:28:15;;;;;;;;;;;26.70;78.30;;;;;;5081894;28;19919;-52
2022/02/14 03:30:42;;;;;;;;;;;26.80;78.10;;;;;;5086214;28;19920;-49
2022/02/14 03:33:08;;;;;;;;;;;26.80;77.80;;;;;;5088711;28;19916;-50
2022/02/14 03:35:35;;;;;;;;;;;26.80;77.70;;;;;;5090267;28;20423;-56
2022/02/14 03:38:06;;;;;;;;;;;26.90;76.90;;;;;;5085755;28;20367;-56
2022/02/14 03:40:37;;;;;;;;;;;27.00;76.70;;;;;;5058117;28;19909;-52
2022/02/14 03:43:04;;;;;;;;;;;27.00;76.30;;;;;;5076053;28;19908;-52
2022/02/14 03:45:31;;;;;;;;;;;27.00;76.50;;;;;;5076280;28;19915;-54
2022/02/14 03:47:58;;;;;;;;;;;26.90;76.10;;;;;;5076353;28;19948;-55
2022/02/14 03:50:25;;;;;;;;;;;27.00;77.50;;;;;;5076139;28;20304;-58
2022/02/14 03:52:51;;;;;;;;;;;26.90;77.50;;;;;;5075356;28;20398;-60
2022/02/14 03:55:18;;;;;;;;;;;26.80;77.80;;;;;;5075988;28;19997;-53
2022/02/14 03:57:50;;;;;;;;;;;26.80;78.40;;;;;;5076399;28;20397;-56
2022/02/14 04:00:18;;;;;;;;;;;26.70;78.60;;;;;;5058365;28;20408;-57
2022/02/14 04:02:45;;;;;;;;;;;26.60;78.90;;;;;;5076220;28;19915;-51
2022/02/14 04:05:13;;;;;;;;;;;26.60;79.00;;;;;;5075051;28;19919;-56
2022/02/14 04:07:40;;;;;;;;;;;26.70;78.80;;;;;;5076377;28;20351;-60
2022/02/14 04:10:08;;;;;;;;;;;26.60;79.10;;;;;;5058801;28;20358;-57
2022/02/14 04:12:34;;;;;;;;;;;26.70;78.00;;;;;;5069127;28;19924;-57
2022/02/14 04:15:01;;;;;;;;;;;27.00;75.40;;;;;;5091064;28;19944;-56
2022/02/14 04:17:28;;;;;;;;;;;27.20;74.50;;;;;;5087527;28;19916;-52
2022/02/14 04:19:55;;;;;;;;;;;27.30;74.10;;;;;;5093988;28;19970;-50
2022/02/14 04:22:21;;;;;;;;;;;27.30;74.20;;;;;;5084950;28;19916;-52
2022/02/14 04:24:48;;;;;;;;;;;27.30;73.70;;;;;;5091764;28;19920;-50
2022/02/14 04:27:15;;;;;;;;;;;27.30;71.50;;;;;;5093790;28;19950;-48
2022/02/14 04:29:42;;;;;;;;;;;27.30;72.60;;;;;;5071940;28;19947;-58
2022/02/14 04:32:09;;;;;;;;;;;27.30;72.00;;;;;;5080386;28;19912;-56
2022/02/14 04:34:36;;;;;;;;;;;27.30;72.60;;;;;;5057450;28;20000;-55
2022/02/14 04:37:03;;;;;;;;;;;27.30;72.30;;;;;;5073320;28;19976;-53
2022/02/14 04:39:30;;;;;;;;;;;27.30;71.60;;;;;;5085973;28;19955;-53
2022/02/14 04:41:56;;;;;;;;;;;27.20;71.70;;;;;;5091596;28;19918;-55
2022/02/14 04:44:23;;;;;;;;;;;27.20;71.10;;;;;;5072177;28;19946;-53
2022/02/14 04:46:50;;;;;;;;;;;27.20;71.80;;;;;;5092533;28;20270;-54
2022/02/14 04:49:17;;;;;;;;;;;27.30;72.40;;;;;;5093122;28;19939;-61
2022/02/14 04:51:44;;;;;;;;;;;27.30;71.70;;;;;;5086317;28;19966;-55
2022/02/14 04:54:11;;;;;;;;;;;27.30;71.70;;;;;;5072468;28;20000;-56
2022/02/14 04:56:37;;;;;;;;;;;27.30;71.60;;;;;;5074888;28;19908;-52
2022/02/14 04:59:04;;;;;;;;;;;27.20;71.10;;;;;;5074991;28;19959;-56
2022/02/14 05:01:31;;;;;;;;;;;27.20;71.00;;;;;;5074811;28;19908;-54
2022/02/14 05:03:58;;;;;;;;;;;27.20;71.10;;;;;;5074864;28;19909;-55
2022/02/14 05:06:25;;;;;;;;;;;27.20;70.50;;;;;;5074986;28;20013;-58
2022/02/14 05:08:52;;;;;;;;;;;27.20;69.90;;;;;;5074754;28;19908;-52
2022/02/14 05:11:19;;;;;;;;;;;27.20;69.20;;;;;;5057271;28;19909;-57
2022/02/14 05:13:46;;;;;;;;;;;27.20;70.50;;;;;;5074638;28;20367;-53
2022/02/14 05:16:15;;;;;;;;;;;27.10;71.60;;;;;;5085729;28;19920;-57
2022/02/14 05:18:45;;;;;;;;;;;27.10;70.80;;;;;;5094123;28;19962;-59
2022/02/14 05:21:12;;;;;;;;;;;27.30;67.40;;;;;;5093903;28;19915;-59
2022/02/14 05:23:38;;;;;;;;;;;27.00;69.20;;;;;;5095010;28;19938;-58
2022/02/14 05:26:05;;;;;;;;;;;27.00;69.10;;;;;;5094991;28;19908;-60
2022/02/14 05:28:32;;;;;;;;;;;26.90;70.10;;;;;;5094207;28;20363;-60
2022/02/14 05:30:59;;;;;;;;;;;27.00;71.50;;;;;;5094917;28;19909;-60
2022/02/14 05:33:26;;;;;;;;;;;26.80;72.50;;;;;;5094286;28;19966;-58
2022/02/14 05:35:53;;;;;;;;;;;26.90;73.30;;;;;;5094486;28;19918;-57
2022/02/14 05:38:20;;;;;;;;;;;26.80;73.50;;;;;;5094860;28;19999;-60
2022/02/14 05:40:46;;;;;;;;;;;26.70;74.30;;;;;;5094121;28;20008;-54
2022/02/14 05:43:14;;;;;;;;;;;26.60;72.80;;;;;;5094393;28;19960;-56
2022/02/14 05:45:41;;;;;;;;;;;26.60;76.10;;;;;;5081286;28;19917;-54
2022/02/14 05:48:08;;;;;;;;;;;26.60;76.00;;;;;;5066943;28;19928;-55
2022/02/14 05:50:35;;;;;;;;;;;26.40;77.20;;;;;;5067773;28;20339;-53
2022/02/14 05:53:02;;;;;;;;;;;26.60;75.90;;;;;;5072728;28;19916;-54
2022/02/14 05:55:35;;;;;;;;;;;26.50;76.10;;;;;;5088221;28;19908;-49
2022/02/14 05:58:03;;;;;;;;;;;26.50;75.40;;;;;;5070857;28;20331;-52
2022/02/14 06:00:30;;;;;;;;;;;26.60;76.00;;;;;;5077681;28;19908;-52
2022/02/14 06:02:56;;;;;;;;;;;26.50;76.50;;;;;;5076799;28;20005;-53
2022/02/14 06:05:27;;;;;;;;;;;26.50;70.30;;;;;;5054065;28;20664;-51
2022/02/14 06:07:59;;;;;;;;;;;26.50;73.20;;;;;;5052036;28;19908;-53
2022/02/14 06:10:26;;;;;;;;;;;26.50;74.90;;;;;;5072722;28;19913;-48
2022/02/14 06:12:52;;;;;;;;;;;26.40;76.70;;;;;;5071528;28;19924;-49
2022/02/14 06:15:19;;;;;;;;;;;26.40;77.10;;;;;;5076791;28;19927;-53
2022/02/14 06:17:47;;;;;;;;;;;26.40;77.10;;;;;;5076099;28;20367;-50
2022/02/14 06:20:15;;;;;;;;;;;26.30;77.40;;;;;;5068805;28;20351;-53
2022/02/14 06:22:42;;;;;;;;;;;26.30;77.80;;;;;;5056136;28;19908;-52
2022/02/14 06:25:09;;;;;;;;;;;26.30;77.70;;;;;;5073585;28;19908;-47
2022/02/14 06:27:36;;;;;;;;;;;26.30;77.50;;;;;;5073263;28;19913;-49
2022/02/14 06:30:03;;;;;;;;;;;26.30;77.80;;;;;;5069829;28;19937;-56
2022/02/14 06:32:30;;;;;;;;;;;26.30;77.10;;;;;;5069240;28;20015;-56
2022/02/14 06:34:57;;;;;;;;;;;26.40;75.60;;;;;;5072684;28;19958;-60
2022/02/14 06:37:24;;;;;;;;;;;26.40;76.00;;;;;;5072705;28;19995;-59
2022/02/14 06:39:53;;;;;;;;;;;26.40;74.50;;;;;;5073042;28;20438;-56
2022/02/14 06:42:20;;;;;;;;;;;26.40;74.20;;;;;;5072985;28;20302;-53
2022/02/14 06:44:47;;;;;;;;;;;26.40;73.50;;;;;;5072254;28;19917;-46
2022/02/14 06:47:14;;;;;;;;;;;26.30;73.90;;;;;;5072397;28;20041;-65
2022/02/14 06:49:41;;;;;;;;;;;26.30;73.90;;;;;;5072594;28;19909;-52
2022/02/14 06:52:07;;;;;;;;;;;26.30;73.80;;;;;;5072789;28;20007;-62
2022/02/14 06:54:34;;;;;;;;;;;26.30;74.50;;;;;;5072383;28;20274;-48
2022/02/14 06:57:01;;;;;;;;;;;26.30;74.50;;;;;;5071042;28;20490;-53
2022/02/14 06:59:28;;;;;;;;;;;26.30;75.30;;;;;;5072153;28;20274;-47
2022/02/14 07:01:55;;;;;;;;;;;26.30;74.90;;;;;;5065832;28;19916;-48
2022/02/14 07:04:22;;;;;;;;;;;26.20;75.40;;;;;;5068264;28;19931;-52
2022/02/14 07:06:48;;;;;;;;;;;26.20;75.20;;;;;;5071826;28;19916;-45
2022/02/14 07:09:15;;;;;;;;;;;26.20;76.30;;;;;;5055224;28;19914;-48
2022/02/14 07:11:44;;;;;;;;;;;26.20;76.00;;;;;;5078746;28;20837;-46
2022/02/14 07:14:11;;;;;;;;;;;26.10;76.80;;;;;;5086786;28;19924;-52
2022/02/14 07:16:38;;;;;;;;;;;26.20;77.20;;;;;;5087564;28;19928;-51
2022/02/14 07:19:04;;;;;;;;;;;26.10;77.00;;;;;;5094112;28;19908;-52
2022/02/14 07:21:31;;;;;;;;;;;26.20;77.30;;;;;;5092707;28;20266;-46
2022/02/14 07:23:58;;;;;;;;;;;26.20;77.40;;;;;;5092248;28;19909;-52
2022/02/14 07:26:25;;;;;;;;;;;26.10;77.60;;;;;;5093385;28;19972;-53
2022/02/14 07:28:52;;;;;;;;;;;26.10;77.60;;;;;;5093151;28;19987;-48
2022/02/14 07:31:19;;;;;;;;;;;26.00;77.70;;;;;;5092828;28;19912;-53
2022/02/14 07:33:45;;;;;;;;;;;26.00;78.20;;;;;;5091029;28;20216;-54
2022/02/14 07:36:15;;;;;;;;;;;26.00;78.30;;;;;;5092836;28;20294;-45
2022/02/14 07:38:42;;;;;;;;;;;26.00;78.30;;;;;;5093913;28;20374;-49
2022/02/14 07:41:09;;;;;;;;;;;26.00;77.80;;;;;;5093556;28;19968;-48
2022/02/14 07:43:35;;;;;;;;;;;25.90;78.10;;;;;;5089775;28;19916;-47
2022/02/14 07:46:02;;;;;;;;;;;26.00;78.40;;;;;;5093645;28;19956;-50
2022/02/14 07:48:29;;;;;;;;;;;25.90;78.70;;;;;;5093220;28;20005;-50
2022/02/14 07:50:55;;;;;;;;;;;25.90;78.80;;;;;;5093013;28;19908;-50
2022/02/14 07:53:22;;;;;;;;;;;25.90;78.80;;;;;;5088812;28;20015;-49
2022/02/14 07:55:49;;;;;;;;;;;25.90;79.00;;;;;;5093509;28;19908;-53
2022/02/14 07:58:15;;;;;;;;;;;25.90;79.20;;;;;;5092760;28;20266;-55
2022/02/14 08:00:42;;;;;;;;;;;25.90;78.60;;;;;;5096338;28;19915;-58
2022/02/14 08:03:09;;;;;;;;;;;25.90;78.70;;;;;;5094563;28;19946;-59
2022/02/14 08:05:36;;;;;;;;;;;25.80;78.90;;;;;;5095924;28;19912;-52
2022/02/14 08:08:02;;;;;;;;;;;25.60;78.70;;;;;;5095694;28;20359;-54
2022/02/14 08:10:29;;;;;;;;;;;25.60;79.70;;;;;;5095609;28;19908;-57
2022/02/14 08:12:56;;;;;;;;;;;25.60;80.10;;;;;;5095888;28;20020;-57
2022/02/14 08:15:25;;;;;;;;;;;25.50;80.40;;;;;;5095309;28;19912;-64
2022/02/14 08:17:52;;;;;;;;;;;25.50;80.60;;;;;;5095676;28;19967;-64
2022/02/14 08:20:19;;;;;;;;;;;25.40;81.00;;;;;;5095785;28;19908;-55
2022/02/14 08:22:46;;;;;;;;;;;25.40;82.40;;;;;;5094473;28;19908;-64
2022/02/14 08:25:13;;;;;;;;;;;25.50;84.50;;;;;;5076465;28;20329;-63
2022/02/14 08:27:40;;;;;;;;;;;25.40;81.40;;;;;;5094470;28;19916;-64
2022/02/14 08:30:07;;;;;;;;;;;25.40;81.90;;;;;;5095004;28;19912;-65
2022/02/14 08:32:33;;;;;;;;;;;25.40;84.00;;;;;;5094974;28;19992;-63
2022/02/14 08:35:00;;;;;;;;;;;25.40;83.10;;;;;;5094932;28;19908;-58
2022/02/14 08:37:28;;;;;;;;;;;25.40;82.50;;;;;;5095445;28;20044;-63
2022/02/14 08:39:55;;;;;;;;;;;25.40;86.40;;;;;;5095517;28;20011;-60
2022/02/14 08:42:21;;;;;;;;;;;25.40;86.50;;;;;;5095316;28;19908;-65
2022/02/14 08:44:48;;;;;;;;;;;25.40;84.10;;;;;;5094736;28;19908;-61
2022/02/14 08:47:15;;;;;;;;;;;25.30;83.30;;;;;;5094786;28;20274;-56
2022/02/14 08:49:41;;;;;;;;;;;25.30;85.40;;;;;;5094193;28;19912;-63
2022/02/14 08:52:08;;;;;;;;;;;25.20;85.20;;;;;;5095071;28;20285;-66
2022/02/14 08:54:35;;;;;;;;;;;25.20;83.30;;;;;;5094992;28;19912;-58
2022/02/14 08:57:02;;;;;;;;;;;25.20;84.80;;;;;;5094756;28;19908;-67
2022/02/14 08:59:28;;;;;;;;;;;25.10;83.30;;;;;;5095047;28;19909;-65
2022/02/14 09:01:56;;;;;;;;;;;25.20;84.70;;;;;;5076462;28;20253;-60
2022/02/14 09:04:23;;;;;;;;;;;25.10;84.10;;;;;;5076412;28;19973;-62
2022/02/14 09:06:49;;;;;;;;;;;25.10;85.40;;;;;;5076116;28;19939;-66
2022/02/14 09:09:16;;;;;;;;;;;25.10;86.10;;;;;;5094753;28;20278;-68
2022/02/14 09:11:43;;;;;;;;;;;25.10;83.90;;;;;;5076501;28;19930;-64
2022/02/14 09:14:10;;;;;;;;;;;25.00;83.20;;;;;;5094526;28;19916;-61
2022/02/14 09:16:37;;;;;;;;;;;24.90;84.40;;;;;;5094313;28;19959;-64
2022/02/14 09:19:04;;;;;;;;;;;24.80;83.60;;;;;;5076818;28;19912;-68
2022/02/14 09:21:31;;;;;;;;;;;24.80;83.30;;;;;;5094617;28;19908;-62
2022/02/14 09:23:57;;;;;;;;;;;24.80;82.40;;;;;;5094771;28;19912;-58
2022/02/14 09:26:24;;;;;;;;;;;24.90;84.80;;;;;;5094532;28;19916;-58
2022/02/14 09:28:51;;;;;;;;;;;24.90;84.50;;;;;;5094144;28;19912;-54
2022/02/14 09:31:18;;;;;;;;;;;25.00;85.00;;;;;;5094195;28;19981;-55
2022/02/14 09:33:45;;;;;;;;;;;24.90;84.70;;;;;;5093843;28;19923;-59
2022/02/14 09:36:12;;;;;;;;;;;25.00;84.70;;;;;;5094079;28;19952;-53
2022/02/14 09:38:38;;;;;;;;;;;25.00;84.70;;;;;;5076104;28;19915;-55
2022/02/14 09:41:05;;;;;;;;;;;25.10;86.30;;;;;;5094293;28;20432;-55
2022/02/14 09:43:34;;;;;;;;;;;25.10;85.20;;;;;;5075914;28;20388;-53
2022/02/14 09:46:01;;;;;;;;;;;25.10;85.00;;;;;;5094324;28;19978;-50
2022/02/14 09:48:31;;;;;;;;;;;25.10;85.60;;;;;;5082203;28;20469;-51
2022/02/14 09:50:58;;;;;;;;;;;25.10;84.90;;;;;;5068049;28;20379;-47
2022/02/14 09:53:25;;;;;;;;;;;25.10;85.60;;;;;;5081295;28;19922;-56
2022/02/14 09:55:55;;;;;;;;;;;25.10;85.70;;;;;;5076940;28;19939;-54
2022/02/14 09:58:22;;;;;;;;;;;25.10;85.60;;;;;;5087105;28;19908;-56
2022/02/14 10:00:49;;;;;;;;;;;25.10;85.60;;;;;;5084890;28;19998;-47
2022/02/14 10:03:17;;;;;;;;;;;25.10;85.60;;;;;;5077362;28;19908;-54
2022/02/14 10:05:45;;;;;;;;;;;25.10;85.50;;;;;;5085732;28;19953;-52
2022/02/14 10:08:18;;;;;;;;;;;25.10;85.60;;;;;;5083486;28;19923;-51
2022/02/14 10:10:44;;;;;;;;;;;25.10;85.60;;;;;;5077336;28;19908;-49
2022/02/14 10:13:11;;;;;;;;;;;25.00;85.60;;;;;;5075786;28;20033;-54
2022/02/14 10:15:48;;;;;;;;;;;25.00;85.70;;;;;;5084107;28;19920;-48
2022/02/14 10:18:25;;;;;;;;;;;25.00;85.80;;;;;;5077488;28;20279;-54
2022/02/14 10:20:52;;;;;;;;;;;25.00;85.90;;;;;;5084848;28;19916;-56
2022/02/14 10:23:19;;;;;;;;;;;25.00;86.00;;;;;;5062424;28;19908;-55
2022/02/14 10:25:46;;;;;;;;;;;25.00;85.90;;;;;;5085152;28;20456;-50
2022/02/14 10:28:16;;;;;;;;;;;25.00;85.90;;;;;;5066267;28;19908;-58
2022/02/14 10:31:01;;;;;;;;;;;24.90;86.10;;;;;;5086550;28;19923;-51
2022/02/14 10:33:49;;;;;;;;;;;24.90;86.10;;;;;;5079580;28;20324;-51
2022/02/14 10:36:28;;;;;;;;;;;24.90;86.20;;;;;;5086472;28;19934;-52
2022/02/14 10:38:55;;;;;;;;;;;24.90;86.80;;;;;;5082792;28;19916;-50
2022/02/14 10:41:22;;;;;;;;;;;24.90;86.30;;;;;;5064497;28;19947;-52
2022/02/14 10:43:49;;;;;;;;;;;24.90;86.20;;;;;;5086552;28;20278;-47
2022/02/14 10:46:24;;;;;;;;;;;24.90;86.20;;;;;;5080590;28;19916;-50
2022/02/14 10:48:58;;;;;;;;;;;24.90;86.30;;;;;;5088044;28;20413;-50
2022/02/14 10:51:24;;;;;;;;;;;24.90;86.30;;;;;;5081041;28;19908;-49
2022/02/14 10:53:51;;;;;;;;;;;24.90;86.30;;;;;;5082501;28;19923;-48
2022/02/14 10:56:18;;;;;;;;;;;24.90;86.40;;;;;;5087629;28;19977;-49
2022/02/14 10:58:46;;;;;;;;;;;24.90;86.50;;;;;;5082911;28;20382;-49
2022/02/14 11:01:14;;;;;;;;;;;24.90;86.40;;;;;;5082029;28;20002;-52
2022/02/14 11:03:41;;;;;;;;;;;24.90;86.40;;;;;;5081641;28;19944;-51
2022/02/14 11:06:09;;;;;;;;;;;24.90;86.50;;;;;;5086403;28;20355;-48
2022/02/14 11:08:37;;;;;;;;;;;24.90;86.40;;;;;;5084485;28;19916;-50
2022/02/14 11:11:05;;;;;;;;;;;24.90;86.50;;;;;;5087062;28;20387;-46
2022/02/14 11:13:33;;;;;;;;;;;24.80;86.30;;;;;;5076673;28;19916;-48
2022/02/14 11:16:00;;;;;;;;;;;24.80;86.40;;;;;;5085604;28;20031;-52
2022/02/14 11:18:34;;;;;;;;;;;24.80;86.40;;;;;;5086711;28;20363;-50
2022/02/14 11:21:02;;;;;;;;;;;24.80;86.50;;;;;;5083374;28;20424;-51
2022/02/14 11:23:30;;;;;;;;;;;24.80;86.30;;;;;;5079547;28;19909;-55
2022/02/14 11:26:08;;;;;;;;;;;24.80;86.50;;;;;;5068347;28;19955;-53
2022/02/14 11:28:47;;;;;;;;;;;24.80;86.50;;;;;;5082537;28;19909;-48
2022/02/14 11:31:18;;;;;;;;;;;24.70;86.50;;;;;;5081459;28;19958;-52
2022/02/14 11:33:52;;;;;;;;;;;24.80;86.60;;;;;;5085379;28;19916;-60
2022/02/14 11:36:20;;;;;;;;;;;24.80;86.60;;;;;;5092912;28;19908;-59
2022/02/14 11:38:48;;;;;;;;;;;24.70;86.50;;;;;;5092830;28;20358;-53
2022/02/14 11:41:26;;;;;;;;;;;24.70;86.50;;;;;;5092940;28;19962;-56
2022/02/14 11:43:54;;;;;;;;;;;24.70;86.60;;;;;;5092942;28;19909;-58
2022/02/14 11:46:25;;;;;;;;;;;24.70;86.80;;;;;;5092830;28;19908;-53
2022/02/14 11:49:12;;;;;;;;;;;24.70;87.00;;;;;;5092530;28;19915;-57
2022/02/14 11:51:43;;;;;;;;;;;24.70;87.00;;;;;;5092685;28;19915;-59
2022/02/14 11:54:29;;;;;;;;;;;24.60;87.10;;;;;;5092908;28;20031;-57
2022/02/14 11:57:16;;;;;;;;;;;24.60;87.20;;;;;;5093114;28;19912;-62
2022/02/14 11:59:43;;;;;;;;;;;24.60;87.20;;;;;;5064777;28;20343;-56
2022/02/14 12:02:11;;;;;;;;;;;24.60;87.20;;;;;;5094770;28;19963;-57
2022/02/14 12:04:39;;;;;;;;;;;24.60;88.00;;;;;;5096138;28;19920;-56
2022/02/14 12:07:19;;;;;;;;;;;24.50;87.40;;;;;;5087390;28;20509;-57
2022/02/14 12:09:58;;;;;;;;;;;24.50;87.40;;;;;;5055729;28;20323;-55
2022/02/14 12:12:43;;;;;;;;;;;24.50;87.50;;;;;;5055594;28;20070;-55
2022/02/14 12:20:41;;;;;;;;;;;24.50;87.50;;;;;;5075615;28;20015;-56
2022/02/14 12:23:11;;;;;;;;;;;24.50;87.30;;;;;;5074755;28;20389;-59
2022/02/14 12:25:51;;;;;;;;;;;24.50;87.40;;;;;;5075745;28;20323;-56
2022/02/14 12:28:17;;;;;;;;;;;24.50;87.40;;;;;;5075420;28;19913;-58
2022/02/14 12:30:45;;;;;;;;;;;24.50;87.50;;;;;;5075379;28;19966;-56
2022/02/14 12:33:13;;;;;;;;;;;24.40;87.50;;;;;;5075327;28;20452;-59
2022/02/14 12:35:44;;;;;;;;;;;24.40;87.50;;;;;;5075475;28;19969;-57
2022/02/14 12:38:14;;;;;;;;;;;24.40;87.60;;;;;;5073541;28;19955;-54
2022/02/14 12:40:48;;;;;;;;;;;24.40;87.60;;;;;;5092131;28;19938;-57
2022/02/14 12:43:21;;;;;;;;;;;24.40;87.60;;;;;;5092239;28;20252;-58
2022/02/14 12:45:49;;;;;;;;;;;24.40;87.70;;;;;;5093444;28;19987;-56
2022/02/14 12:48:33;;;;;;;;;;;24.40;87.80;;;;;;5089717;28;19948;-52
2022/02/14 12:51:07;;;;;;;;;;;24.40;87.80;;;;;;5091629;28;19908;-51
2022/02/14 12:53:35;;;;;;;;;;;24.40;88.30;;;;;;5089365;28;19963;-52
2022/02/14 12:56:19;;;;;;;;;;;24.40;88.10;;;;;;5090950;28;19916;-50
2022/02/14 12:58:52;;;;;;;;;;;24.40;88.20;;;;;;5088502;28;20508;-52
2022/02/14 13:01:20;;;;;;;;;;;24.40;88.30;;;;;;5082600;28;19957;-55
2022/02/14 13:03:59;;;;;;;;;;;24.40;88.40;;;;;;5081720;28;19923;-56
2022/02/14 13:06:39;;;;;;;;;;;24.40;88.50;;;;;;5077876;28;19924;-58
2022/02/14 13:09:24;;;;;;;;;;;24.40;88.40;;;;;;5080554;28;20279;-58
2022/02/14 13:11:52;;;;;;;;;;;24.30;88.40;;;;;;5080927;28;20337;-57
2022/02/14 13:14:37;;;;;;;;;;;24.30;88.50;;;;;;5082066;28;19955;-58
2022/02/14 13:17:05;;;;;;;;;;;24.30;88.60;;;;;;5090138;28;19924;-57
2022/02/14 13:19:33;;;;;;;;;;;24.30;88.60;;;;;;5094507;28;19912;-58
2022/02/14 13:22:06;;;;;;;;;;;24.30;88.70;;;;;;5095051;28;19908;-59
2022/02/14 13:24:36;;;;;;;;;;;24.30;88.80;;;;;;5094394;28;19908;-57
2022/02/14 13:27:09;;;;;;;;;;;24.30;88.90;;;;;;5089150;28;19912;-51
2022/02/14 13:29:39;;;;;;;;;;;24.30;89.00;;;;;;5088754;28;19916;-54
2022/02/14 13:32:06;;;;;;;;;;;24.20;89.00;;;;;;5092204;28;19908;-56
2022/02/14 13:34:34;;;;;;;;;;;24.20;89.00;;;;;;5086976;28;19973;-59
2022/02/14 13:37:00;;;;;;;;;;;24.20;89.00;;;;;;5089885;28;19958;-58
2022/02/14 13:39:31;;;;;;;;;;;24.20;89.10;;;;;;5091113;28;20704;-59
2022/02/14 13:41:59;;;;;;;;;;;24.20;89.20;;;;;;5092002;28;19942;-59
2022/02/14 13:44:27;;;;;;;;;;;24.20;89.30;;;;;;5090105;28;20403;-58
2022/02/14 13:47:13;;;;;;;;;;;24.20;89.40;;;;;;5091250;28;19927;-53
2022/02/14 13:49:40;;;;;;;;;;;24.20;89.60;;;;;;5088402;28;20270;-61
2022/02/14 13:52:07;;;;;;;;;;;24.10;89.60;;;;;;5091539;28;19919;-59
2022/02/14 13:54:34;;;;;;;;;;;24.10;89.60;;;;;;5086989;28;19930;-57
2022/02/14 13:57:01;;;;;;;;;;;24.10;89.60;;;;;;5091262;28;20499;-59
2022/02/14 13:59:28;;;;;;;;;;;24.10;89.60;;;;;;5091450;28;19912;-57
2022/02/14 14:02:11;;;;;;;;;;;24.10;89.60;;;;;;5091297;28;19915;-58
2022/02/14 14:04:38;;;;;;;;;;;24.10;89.60;;;;;;5088754;28;19974;-62
2022/02/14 14:07:11;;;;;;;;;;;24.10;89.60;;;;;;5091335;28;19977;-56
2022/02/14 14:09:44;;;;;;;;;;;24.10;89.70;;;;;;5090904;28;19908;-54
2022/02/14 14:12:12;;;;;;;;;;;24.10;89.60;;;;;;5087857;28;19908;-55
2022/02/14 14:14:39;;;;;;;;;;;24.10;89.60;;;;;;5087755;28;19959;-57
2022/02/14 14:17:07;;;;;;;;;;;24.10;89.60;;;;;;5085156;28;19924;-54
2022/02/14 14:19:45;;;;;;;;;;;24.00;89.60;;;;;;5086514;28;20475;-56
2022/02/14 14:22:12;;;;;;;;;;;24.00;89.60;;;;;;5079690;28;19912;-59
2022/02/14 14:24:39;;;;;;;;;;;24.00;89.60;;;;;;5078412;28;20319;-56
2022/02/14 14:27:10;;;;;;;;;;;24.10;89.70;;;;;;5085296;28;19924;-58
2022/02/14 14:29:39;;;;;;;;;;;24.00;89.60;;;;;;5084602;28;19976;-57
2022/02/14 14:32:08;;;;;;;;;;;24.00;89.60;;;;;;5084849;28;19963;-56
2022/02/14 14:34:35;;;;;;;;;;;24.00;89.60;;;;;;5082666;28;20382;-59